Time;durP1;ratioP1;P1;durP2;ratioP2;P2;SDS_P1;SDS_P2;PMS_P1;PMS_P2;Temp;Humidity;BMP_temperature;BMP_pressure;BME280_temperature;BME280_humidity;BME280_pressure;Samples;Min_cycle;Max_cycle;Signal;HPM_P1;HPM_P2
2021/06/26 00:00:51;;;;;;;8.87;7.30;;;16.60;99.90;;;;;;5034024;28;20503;-65
2021/06/26 00:03:22;;;;;;;6.77;5.80;;;16.60;99.90;;;;;;5036540;28;20418;-65
2021/06/26 00:05:48;;;;;;;6.87;5.00;;;16.60;99.90;;;;;;5036595;28;20421;-65
2021/06/26 00:08:15;;;;;;;8.30;6.10;;;16.50;99.90;;;;;;5036123;28;20817;-65
2021/06/26 00:10:42;;;;;;;8.07;7.27;;;16.60;99.90;;;;;;5036562;28;20416;-64
2021/06/26 00:13:08;;;;;;;7.77;6.97;;;16.50;99.90;;;;;;5036303;28;20427;-65
2021/06/26 00:15:34;;;;;;;10.57;7.67;;;16.50;99.90;;;;;;5036342;28;20417;-65
2021/06/26 00:18:00;;;;;;;9.03;6.63;;;16.50;99.90;;;;;;5035770;28;20549;-65
2021/06/26 00:20:26;;;;;;;10.47;6.60;;;16.50;99.90;;;;;;5035735;28;20473;-64
2021/06/26 00:22:52;;;;;;;8.50;6.63;;;16.50;99.90;;;;;;5018613;28;20980;-65
2021/06/26 00:25:18;;;;;;;8.60;7.67;;;16.40;99.90;;;;;;5036257;28;20484;-64
2021/06/26 00:27:43;;;;;;;9.20;6.10;;;16.40;99.90;;;;;;5036029;28;20892;-65
2021/06/26 00:30:10;;;;;;;9.37;6.97;;;16.40;99.90;;;;;;5036220;28;20652;-65
2021/06/26 00:32:36;;;;;;;11.63;8.43;;;16.30;99.90;;;;;;5036490;28;20194;-65
2021/06/26 00:35:02;;;;;;;7.23;6.53;;;16.30;99.90;;;;;;5035790;28;20460;-65
2021/06/26 00:37:27;;;;;;;12.13;8.47;;;16.30;99.90;;;;;;5035713;28;20970;-64
2021/06/26 00:39:53;;;;;;;19.57;7.53;;;16.30;99.90;;;;;;5035627;28;20471;-67
2021/06/26 00:42:19;;;;;;;9.30;6.97;;;16.30;99.90;;;;;;5018126;28;20629;-65
2021/06/26 00:44:44;;;;;;;12.63;8.37;;;16.30;99.90;;;;;;5035482;28;20178;-65
2021/06/26 00:47:13;;;;;;;10.93;7.67;;;16.30;99.90;;;;;;5035630;28;20182;-64
2021/06/26 00:49:40;;;;;;;8.43;7.53;;;16.40;99.90;;;;;;5035709;28;20567;-65
2021/06/26 00:52:06;;;;;;;9.00;6.57;;;16.40;99.90;;;;;;5035836;28;20460;-64
2021/06/26 00:54:33;;;;;;;7.87;6.73;;;16.40;99.90;;;;;;5017877;28;20387;-66
2021/06/26 00:57:00;;;;;;;9.27;7.70;;;16.50;99.90;;;;;;5035530;28;20501;-65
2021/06/26 00:59:26;;;;;;;9.13;8.10;;;16.60;99.90;;;;;;5035083;28;20491;-64
2021/06/26 01:01:52;;;;;;;13.00;7.20;;;16.60;99.90;;;;;;5017741;28;20468;-65
2021/06/26 01:04:17;;;;;;;9.50;7.13;;;16.60;99.90;;;;;;5035611;28;20497;-64
2021/06/26 01:06:43;;;;;;;8.30;7.23;;;16.50;99.90;;;;;;5035380;28;20177;-64
2021/06/26 01:09:09;;;;;;;9.90;7.73;;;16.50;99.90;;;;;;5034935;28;20264;-64
2021/06/26 01:11:35;;;;;;;11.30;7.60;;;16.50;99.90;;;;;;5035561;28;20625;-63
2021/06/26 01:14:02;;;;;;;9.57;7.70;;;16.50;99.90;;;;;;5034688;28;20509;-63
2021/06/26 01:16:28;;;;;;;11.23;8.07;;;16.50;99.90;;;;;;5035200;28;20408;-64
2021/06/26 01:18:53;;;;;;;8.63;7.70;;;16.50;99.90;;;;;;5034676;28;20978;-65
2021/06/26 01:21:19;;;;;;;9.33;7.37;;;16.50;99.90;;;;;;5035209;28;20408;-64
2021/06/26 01:23:53;;;;;;;10.70;8.77;;;16.50;99.90;;;;;;5034803;28;20185;-63
2021/06/26 01:26:21;;;;;;;11.77;7.83;;;16.40;99.90;;;;;;5035230;28;20482;-64
2021/06/26 01:28:47;;;;;;;10.93;8.40;;;16.40;99.90;;;;;;5034779;28;20439;-64
2021/06/26 01:31:13;;;;;;;9.30;7.87;;;16.40;99.90;;;;;;5035085;28;20416;-63
2021/06/26 01:33:38;;;;;;;10.67;8.70;;;16.40;99.90;;;;;;5034782;28;20424;-65
2021/06/26 01:36:04;;;;;;;9.93;7.53;;;16.40;99.90;;;;;;5034988;28;20252;-66
2021/06/26 01:38:30;;;;;;;9.37;7.97;;;16.30;99.90;;;;;;5034489;28;20233;-64
2021/06/26 01:40:56;;;;;;;11.80;7.30;;;16.40;99.90;;;;;;5034730;28;20500;-64
2021/06/26 01:43:21;;;;;;;13.00;6.93;;;16.40;99.90;;;;;;5034869;28;20192;-63
2021/06/26 01:45:47;;;;;;;9.83;7.77;;;16.30;99.90;;;;;;5034792;28;20170;-66
2021/06/26 01:48:13;;;;;;;10.40;8.40;;;16.40;99.90;;;;;;5033997;28;20620;-66
2021/06/26 01:50:39;;;;;;;9.03;7.70;;;16.40;99.90;;;;;;5034873;28;20638;-66
2021/06/26 01:53:04;;;;;;;8.43;7.53;;;16.40;99.90;;;;;;5034598;28;20223;-65
2021/06/26 01:55:30;;;;;;;10.67;8.00;;;16.30;99.90;;;;;;5034967;28;20188;-64
2021/06/26 01:57:57;;;;;;;9.33;7.70;;;16.30;99.90;;;;;;5033968;28;20459;-66
2021/06/26 02:00:24;;;;;;;50.83;21.93;;;16.30;99.90;;;;;;5016723;28;20838;-64
2021/06/26 02:02:50;;;;;;;19.37;12.00;;;16.30;99.90;;;;;;5034197;28;20527;-63
2021/06/26 02:05:17;;;;;;;24.90;12.77;;;16.30;99.90;;;;;;5034025;28;20425;-66
2021/06/26 02:07:44;;;;;;;15.07;10.87;;;16.30;99.90;;;;;;5033831;28;20411;-65
2021/06/26 02:10:11;;;;;;;33.20;17.27;;;16.30;99.90;;;;;;5033938;28;21005;-64
2021/06/26 02:12:37;;;;;;;13.40;10.17;;;16.30;99.90;;;;;;5016604;28;20409;-66
2021/06/26 02:15:04;;;;;;;10.27;7.50;;;16.30;99.90;;;;;;5016449;28;20479;-65
2021/06/26 02:17:29;;;;;;;14.00;9.10;;;16.30;99.90;;;;;;5033885;28;20240;-64
2021/06/26 02:19:55;;;;;;;10.67;7.90;;;16.30;99.90;;;;;;5033760;28;20547;-65
2021/06/26 02:22:21;;;;;;;8.77;7.87;;;16.30;99.90;;;;;;5034140;28;20179;-65
2021/06/26 02:24:47;;;;;;;16.80;8.27;;;16.30;99.90;;;;;;5032981;28;20174;-66
2021/06/26 02:27:12;;;;;;;14.07;8.50;;;16.30;99.90;;;;;;5033761;28;20586;-65
2021/06/26 02:29:38;;;;;;;15.53;10.97;;;16.20;99.90;;;;;;5033503;28;20216;-65
2021/06/26 02:32:04;;;;;;;12.20;8.37;;;16.20;99.90;;;;;;5033898;28;20636;-65
2021/06/26 02:34:31;;;;;;;10.67;7.73;;;16.20;99.90;;;;;;5033697;28;20192;-65
2021/06/26 02:36:57;;;;;;;11.77;7.73;;;16.20;99.90;;;;;;5033714;28;20768;-65
2021/06/26 02:39:22;;;;;;;11.37;8.43;;;16.30;99.90;;;;;;5033156;28;20457;-65
2021/06/26 02:41:48;;;;;;;9.30;7.40;;;16.30;99.90;;;;;;5033735;28;20816;-64
2021/06/26 02:44:14;;;;;;;10.67;8.27;;;16.20;99.90;;;;;;5033330;28;20537;-65
2021/06/26 02:46:39;;;;;;;19.03;10.40;;;16.20;99.90;;;;;;5033750;28;20926;-65
2021/06/26 02:49:05;;;;;;;8.97;6.80;;;16.20;99.90;;;;;;5033169;28;20201;-66
2021/06/26 02:51:31;;;;;;;9.90;8.00;;;16.30;99.90;;;;;;5033374;28;20170;-66
2021/06/26 02:53:56;;;;;;;8.50;7.17;;;16.30;99.90;;;;;;5033555;28;20182;-65
2021/06/26 02:56:23;;;;;;;9.73;8.30;;;16.20;99.90;;;;;;5033352;28;20178;-65
2021/06/26 02:58:49;;;;;;;11.10;7.97;;;16.20;99.90;;;;;;5033042;28;20273;-65
2021/06/26 03:01:14;;;;;;;12.20;8.33;;;16.20;99.90;;;;;;5033476;28;20405;-65
2021/06/26 03:03:40;;;;;;;9.00;7.30;;;16.30;99.90;;;;;;5033027;28;20745;-64
2021/06/26 03:06:06;;;;;;;11.63;8.87;;;16.30;99.90;;;;;;5033470;28;20652;-65
2021/06/26 03:08:31;;;;;;;11.57;7.20;;;16.40;99.90;;;;;;5032923;28;20174;-64
2021/06/26 03:10:57;;;;;;;9.47;7.23;;;16.40;99.90;;;;;;5033101;28;20175;-64
2021/06/26 03:13:23;;;;;;;11.60;8.60;;;16.40;99.90;;;;;;5033476;28;20178;-66
2021/06/26 03:15:48;;;;;;;11.50;8.50;;;16.40;99.90;;;;;;5033255;28;20177;-65
2021/06/26 03:18:14;;;;;;;11.60;8.13;;;16.50;99.90;;;;;;5032130;28;20464;-66
2021/06/26 03:20:40;;;;;;;10.63;7.60;;;16.50;99.90;;;;;;5033126;28;20193;-64
2021/06/26 03:23:07;;;;;;;12.57;8.80;;;16.40;99.90;;;;;;5033170;28;20170;-65
2021/06/26 03:25:32;;;;;;;11.73;8.70;;;16.40;99.90;;;;;;5015475;28;20227;-65
2021/06/26 03:27:58;;;;;;;9.03;8.10;;;16.40;99.90;;;;;;5032683;28;20504;-65
2021/06/26 03:30:23;;;;;;;14.20;8.30;;;16.50;99.90;;;;;;5033235;28;20267;-65
2021/06/26 03:32:49;;;;;;;11.47;8.40;;;16.50;99.90;;;;;;5033029;28;20236;-65
2021/06/26 03:35:15;;;;;;;10.53;7.97;;;16.50;99.90;;;;;;5033029;28;20181;-65
2021/06/26 03:37:42;;;;;;;11.63;8.90;;;16.50;99.90;;;;;;5036668;28;20174;-65
2021/06/26 03:40:08;;;;;;;9.53;8.50;;;16.40;99.90;;;;;;5037143;28;20190;-65
2021/06/26 03:42:34;;;;;;;10.33;8.50;;;16.30;99.90;;;;;;5037057;28;20404;-64
2021/06/26 03:45:00;;;;;;;10.10;8.63;;;16.30;99.90;;;;;;5037224;28;20421;-64
2021/06/26 03:47:26;;;;;;;11.00;7.33;;;16.20;99.90;;;;;;5036471;28;20498;-65
2021/06/26 03:49:52;;;;;;;9.07;7.53;;;16.20;99.90;;;;;;5036508;28;20194;-64
2021/06/26 03:52:18;;;;;;;12.37;8.70;;;16.20;99.90;;;;;;5036830;28;20416;-64
2021/06/26 03:54:43;;;;;;;12.20;7.73;;;16.10;99.90;;;;;;5036936;28;20416;-65
2021/06/26 03:57:09;;;;;;;10.50;8.80;;;16.10;99.90;;;;;;5036178;28;20184;-64
2021/06/26 03:59:35;;;;;;;11.27;8.47;;;16.10;99.90;;;;;;5036666;28;20242;-64
2021/06/26 04:02:00;;;;;;;10.70;8.13;;;16.10;99.90;;;;;;5036751;28;20178;-65
2021/06/26 04:04:26;;;;;;;10.07;8.30;;;16.10;99.90;;;;;;5037005;28;20401;-65
2021/06/26 04:06:52;;;;;;;11.83;7.47;;;16.00;99.90;;;;;;5036725;28;20192;-64
2021/06/26 04:09:18;;;;;;;10.93;9.80;;;16.00;99.90;;;;;;5036285;28;20193;-64
2021/06/26 04:11:43;;;;;;;15.30;11.47;;;16.00;99.90;;;;;;5036325;28;20181;-66
2021/06/26 04:14:09;;;;;;;17.33;9.00;;;16.00;99.90;;;;;;5036526;28;20459;-65
2021/06/26 04:16:35;;;;;;;13.73;8.40;;;15.90;99.90;;;;;;5036464;28;20193;-65
2021/06/26 04:19:01;;;;;;;9.67;7.70;;;16.00;99.90;;;;;;5035454;28;20213;-65
2021/06/26 04:21:26;;;;;;;11.90;9.67;;;16.00;99.90;;;;;;5036674;28;20217;-64
2021/06/26 04:23:52;;;;;;;13.10;9.37;;;16.00;99.90;;;;;;5036426;28;20467;-64
2021/06/26 04:26:17;;;;;;;10.90;9.30;;;16.30;99.90;;;;;;5036489;28;20565;-65
2021/06/26 04:28:43;;;;;;;13.10;9.27;;;16.60;99.90;;;;;;5035778;28;20265;-65
2021/06/26 04:31:09;;;;;;;11.80;8.77;;;16.90;99.90;;;;;;5036243;28;20181;-65
2021/06/26 04:33:34;;;;;;;12.90;8.50;;;17.40;99.90;;;;;;5035903;28;20174;-66
2021/06/26 04:36:00;;;;;;;9.97;8.40;;;17.50;99.90;;;;;;5035984;28;20182;-65
2021/06/26 04:38:26;;;;;;;12.17;8.30;;;17.50;99.90;;;;;;5035695;28;20699;-66
2021/06/26 04:40:53;;;;;;;8.17;6.57;;;17.40;99.90;;;;;;5036061;28;20175;-65
2021/06/26 04:43:19;;;;;;;9.40;7.30;;;17.30;99.90;;;;;;5036016;28;20414;-66
2021/06/26 04:45:47;;;;;;;10.47;8.40;;;17.30;99.90;;;;;;5036251;28;20528;-64
2021/06/26 04:48:16;;;;;;;11.43;8.30;;;17.20;99.90;;;;;;5034164;28;20724;-65
2021/06/26 04:50:42;;;;;;;8.60;6.53;;;17.10;99.90;;;;;;5035774;28;20499;-64
2021/06/26 04:53:08;;;;;;;10.43;7.47;;;17.00;99.90;;;;;;5035713;28;20505;-65
2021/06/26 04:55:33;;;;;;;11.10;8.50;;;16.90;99.90;;;;;;5018065;28;20427;-67
2021/06/26 04:57:59;;;;;;;11.13;8.30;;;16.90;99.90;;;;;;5035255;28;20177;-64
2021/06/26 05:00:25;;;;;;;11.70;8.10;;;16.80;99.90;;;;;;5035694;28;20543;-63
2021/06/26 05:02:50;;;;;;;11.33;8.13;;;16.70;99.90;;;;;;5035414;28;20172;-63
2021/06/26 05:05:16;;;;;;;10.00;8.03;;;16.70;99.90;;;;;;5035380;28;20417;-66
2021/06/26 05:07:42;;;;;;;12.50;8.10;;;16.80;99.90;;;;;;5035279;28;20179;-66
2021/06/26 05:10:08;;;;;;;9.63;7.67;;;16.90;99.90;;;;;;5035266;28;20186;-64
2021/06/26 05:12:34;;;;;;;13.77;7.67;;;17.00;99.90;;;;;;5035506;28;20203;-64
2021/06/26 05:14:59;;;;;;;9.97;8.40;;;17.10;99.90;;;;;;5035811;28;20798;-64
2021/06/26 05:17:25;;;;;;;10.20;9.03;;;17.20;99.90;;;;;;5034662;28;20584;-64
2021/06/26 05:19:51;;;;;;;11.20;8.77;;;17.30;99.90;;;;;;5034869;28;20616;-65
2021/06/26 05:22:16;;;;;;;8.47;7.57;;;17.40;99.90;;;;;;5035287;28;20182;-64
2021/06/26 05:24:42;;;;;;;11.50;7.90;;;17.50;99.90;;;;;;5035219;28;20197;-63
2021/06/26 05:27:08;;;;;;;9.70;8.50;;;17.60;99.90;;;;;;5034798;28;20188;-65
2021/06/26 05:29:39;;;;;;;10.97;8.10;;;17.70;99.90;;;;;;5034561;28;20447;-65
2021/06/26 05:32:06;;;;;;;8.70;6.90;;;17.80;99.90;;;;;;5017250;28;20905;-63
2021/06/26 05:34:32;;;;;;;8.50;6.47;;;17.90;99.90;;;;;;5035351;28;20834;-64
2021/06/26 05:36:57;;;;;;;10.53;7.70;;;18.00;99.90;;;;;;5034929;28;20518;-64
2021/06/26 05:39:23;;;;;;;10.57;8.30;;;18.10;99.90;;;;;;5034378;28;20212;-63
2021/06/26 05:41:49;;;;;;;10.90;8.17;;;18.30;99.90;;;;;;5034861;28;20182;-66
2021/06/26 05:44:14;;;;;;;10.30;8.20;;;18.60;99.90;;;;;;5034905;28;20170;-64
2021/06/26 05:46:40;;;;;;;8.23;7.10;;;18.80;99.90;;;;;;5034785;28;20178;-64
2021/06/26 05:49:05;;;;;;;9.00;7.07;;;18.90;99.90;;;;;;5034090;28;20213;-65
2021/06/26 05:51:31;;;;;;;10.83;7.63;;;19.10;99.90;;;;;;5034210;28;20181;-63
2021/06/26 05:53:57;;;;;;;8.97;7.13;;;19.10;99.90;;;;;;5034613;28;20182;-64
2021/06/26 05:56:23;;;;;;;10.30;8.03;;;19.20;99.90;;;;;;5034667;28;20176;-64
2021/06/26 05:58:48;;;;;;;9.07;6.97;;;19.20;99.90;;;;;;5034043;28;20238;-64
2021/06/26 06:01:14;;;;;;;8.47;7.20;;;19.30;99.90;;;;;;5034238;28;20174;-64
2021/06/26 06:03:42;;;;;;;8.97;7.30;;;19.50;99.90;;;;;;5034552;28;20599;-64
2021/06/26 06:06:08;;;;;;;9.43;7.30;;;19.50;99.90;;;;;;5034449;28;20559;-64
2021/06/26 06:08:33;;;;;;;10.23;6.67;;;19.70;99.90;;;;;;5033801;28;20441;-67
2021/06/26 06:11:00;;;;;;;10.17;7.80;;;19.90;99.90;;;;;;5034294;28;20636;-64
2021/06/26 06:13:26;;;;;;;12.53;7.83;;;20.00;99.90;;;;;;5034137;28;20170;-65
2021/06/26 06:15:52;;;;;;;9.40;7.03;;;20.20;99.90;;;;;;5034079;28;20768;-65
2021/06/26 06:18:19;;;;;;;9.17;6.77;;;20.30;99.90;;;;;;5033585;28;20202;-65
2021/06/26 06:20:46;;;;;;;9.77;7.33;;;20.40;99.90;;;;;;5034038;28;20261;-64
2021/06/26 06:23:12;;;;;;;9.37;8.43;;;20.70;99.90;;;;;;5034080;28;20760;-67
2021/06/26 06:25:37;;;;;;;11.33;8.33;;;20.90;99.90;;;;;;5033827;28;20907;-63
2021/06/26 06:28:03;;;;;;;10.83;7.63;;;21.00;99.90;;;;;;5015491;28;20524;-66
2021/06/26 06:30:31;;;;;;;8.13;6.73;;;21.20;99.90;;;;;;5033796;28;20196;-65
2021/06/26 06:33:00;;;;;;;8.30;6.90;;;21.40;99.90;;;;;;5033682;28;21010;-64
2021/06/26 06:35:26;;;;;;;8.17;7.27;;;21.60;99.90;;;;;;5033892;28;20825;-64
2021/06/26 06:37:53;;;;;;;8.83;7.77;;;21.60;99.90;;;;;;5032878;28;20421;-66
2021/06/26 06:40:18;;;;;;;10.20;7.97;;;21.40;99.90;;;;;;5033459;28;20519;-64
2021/06/26 06:42:44;;;;;;;8.13;6.87;;;21.30;99.90;;;;;;5033510;28;20484;-65
2021/06/26 06:45:11;;;;;;;7.53;6.73;;;21.40;99.90;;;;;;5033633;28;20425;-66
2021/06/26 06:47:38;;;;;;;8.90;6.90;;;21.50;99.90;;;;;;5032990;28;20179;-66
2021/06/26 06:50:05;;;;;;;8.20;6.70;;;21.60;99.90;;;;;;5033239;28;20424;-67
2021/06/26 06:52:31;;;;;;;11.53;8.37;;;21.70;99.90;;;;;;5015559;28;20793;-65
2021/06/26 06:54:57;;;;;;;8.47;6.53;;;21.80;99.90;;;;;;5033469;28;20744;-65
2021/06/26 06:57:24;;;;;;;8.60;6.63;;;22.10;99.90;;;;;;5032817;28;20492;-64
2021/06/26 06:59:51;;;;;;;8.67;6.90;;;22.60;99.90;;;;;;5032696;28;20233;-66
2021/06/26 07:02:17;;;;;;;8.57;6.67;;;23.10;99.90;;;;;;5015555;28;20750;-65
2021/06/26 07:04:43;;;;;;;9.20;7.90;;;23.40;99.90;;;;;;5033298;28;20409;-66
2021/06/26 07:07:08;;;;;;;9.83;7.20;;;23.70;99.90;;;;;;5032812;28;20177;-65
2021/06/26 07:09:34;;;;;;;8.10;7.20;;;23.60;99.90;;;;;;5032941;28;20197;-65
2021/06/26 07:12:00;;;;;;;8.90;7.40;;;23.60;99.90;;;;;;5032657;28;20166;-65
2021/06/26 07:14:26;;;;;;;7.83;6.40;;;23.60;99.90;;;;;;5032961;28;20170;-64
2021/06/26 07:16:52;;;;;;;9.10;7.70;;;23.50;99.90;;;;;;5033044;28;20623;-66
2021/06/26 07:19:18;;;;;;;9.40;7.23;;;23.50;99.90;;;;;;5032445;28;20470;-67
2021/06/26 07:21:43;;;;;;;8.67;7.43;;;23.50;99.90;;;;;;5032942;28;20172;-65
2021/06/26 07:24:09;;;;;;;9.30;6.40;;;23.50;99.90;;;;;;4998318;28;20170;-64
2021/06/26 07:26:36;;;;;;;9.20;7.67;;;24.00;99.90;;;;;;5033073;28;20221;-66
2021/06/26 07:29:01;;;;;;;7.97;7.17;;;24.40;99.90;;;;;;5032440;28;20520;-66
2021/06/26 07:31:27;;;;;;;8.63;7.73;;;24.90;99.90;;;;;;5032982;28;20523;-66
2021/06/26 07:33:53;;;;;;;11.83;6.77;;;25.60;99.90;;;;;;5033279;28;20184;-65
2021/06/26 07:36:18;;;;;;;7.90;7.10;;;26.10;99.90;;;;;;5032877;28;20593;-66
2021/06/26 07:38:44;;;;;;;7.57;6.70;;;26.90;99.90;;;;;;5032234;28;20288;-66
2021/06/26 07:41:10;;;;;;;8.20;7.40;;;27.50;97.90;;;;;;5033018;28;20215;-65
2021/06/26 07:43:35;;;;;;;8.93;7.97;;;27.80;96.90;;;;;;5032880;28;20220;-65
2021/06/26 07:46:03;;;;;;;8.43;6.40;;;28.20;95.80;;;;;;5032521;28;20553;-66
2021/06/26 07:48:29;;;;;;;6.97;6.37;;;28.50;94.90;;;;;;5031829;28;20694;-66
2021/06/26 07:50:56;;;;;;;6.90;6.20;;;28.40;94.40;;;;;;5032658;28;20449;-65
2021/06/26 07:53:21;;;;;;;7.00;6.30;;;28.50;93.90;;;;;;5032665;28;20999;-66
2021/06/26 07:55:56;;;;;;;8.37;7.50;;;28.10;93.40;;;;;;5032458;28;20508;-65
2021/06/26 07:58:24;;;;;;;7.30;6.03;;;27.80;94.10;;;;;;5032130;28;20201;-66
2021/06/26 08:00:51;;;;;;;6.60;6.00;;;27.70;94.10;;;;;;5032723;28;20415;-65
2021/06/26 08:03:17;;;;;;;5.80;5.20;;;27.40;94.50;;;;;;5032577;28;20745;-66
2021/06/26 08:05:43;;;;;;;6.93;6.10;;;27.00;93.90;;;;;;5032631;28;20818;-66
2021/06/26 08:08:09;;;;;;;6.00;5.23;;;26.70;94.80;;;;;;5032322;28;20379;-64
2021/06/26 08:10:35;;;;;;;6.23;5.60;;;26.90;95.30;;;;;;5032298;28;20419;-65
2021/06/26 08:13:01;;;;;;;7.60;6.63;;;27.70;93.30;;;;;;5032800;28;20182;-66
2021/06/26 08:15:27;;;;;;;5.40;4.90;;;28.90;92.30;;;;;;5032780;28;20671;-67
2021/06/26 08:17:52;;;;;;;6.30;5.70;;;29.80;91.50;;;;;;5032421;28;20941;-65
2021/06/26 08:20:18;;;;;;;6.50;5.60;;;30.50;89.20;;;;;;5032355;28;20210;-65
2021/06/26 08:22:44;;;;;;;5.23;4.83;;;31.00;86.90;;;;;;5033332;28;20629;-68
2021/06/26 08:25:10;;;;;;;6.53;5.87;;;31.00;82.70;;;;;;5035977;28;20186;-65
2021/06/26 08:27:36;;;;;;;6.13;5.60;;;30.70;83.50;;;;;;5035530;28;20450;-66
2021/06/26 08:30:02;;;;;;;6.50;5.33;;;30.40;84.70;;;;;;5035592;28;20452;-66
2021/06/26 08:32:28;;;;;;;6.40;5.80;;;30.40;85.40;;;;;;5035918;28;20174;-66
2021/06/26 08:34:53;;;;;;;6.50;6.00;;;30.80;84.00;;;;;;5018198;28;20464;-64
2021/06/26 08:37:19;;;;;;;6.83;6.13;;;30.90;83.20;;;;;;5035497;28;20923;-66
2021/06/26 08:39:45;;;;;;;5.20;4.70;;;30.60;82.50;;;;;;5035674;28;20206;-65
2021/06/26 08:42:11;;;;;;;5.67;5.17;;;30.30;84.60;;;;;;5036105;28;20690;-66
2021/06/26 08:44:39;;;;;;;6.23;5.50;;;30.80;82.50;;;;;;5036008;28;20537;-67
2021/06/26 08:47:05;;;;;;;6.80;6.20;;;31.40;81.20;;;;;;5035789;28;20376;-66
2021/06/26 08:49:31;;;;;;;5.33;4.90;;;32.10;79.10;;;;;;5035196;28;20420;-65
2021/06/26 08:51:57;;;;;;;5.70;5.30;;;32.50;77.30;;;;;;5035584;28;20412;-66
2021/06/26 08:54:23;;;;;;;5.47;4.97;;;32.70;75.20;;;;;;5017456;28;20194;-65
2021/06/26 08:56:50;;;;;;;6.33;5.60;;;32.80;75.20;;;;;;5035597;28;20472;-65
2021/06/26 08:59:16;;;;;;;5.20;4.80;;;32.90;72.80;;;;;;5035074;28;20214;-66
2021/06/26 09:01:43;;;;;;;5.73;5.00;;;32.90;72.80;;;;;;5035427;28;20420;-66
2021/06/26 09:04:12;;;;;;;5.37;4.97;;;33.50;72.20;;;;;;5035022;28;20396;-64
2021/06/26 09:06:54;;;;;;;6.03;5.50;;;33.80;69.20;;;;;;5035289;28;20405;-66
2021/06/26 09:09:32;;;;;;;5.80;5.40;;;33.60;69.90;;;;;;5035045;28;20932;-64
2021/06/26 09:12:20;;;;;;;7.93;5.60;;;33.00;71.20;;;;;;5035438;28;20434;-66
2021/06/26 09:14:46;;;;;;;4.70;4.40;;;32.60;71.70;;;;;;5035405;28;20810;-65
2021/06/26 09:17:12;;;;;;;6.17;5.53;;;32.80;72.10;;;;;;5034703;28;20490;-66
2021/06/26 09:19:39;;;;;;;5.00;4.60;;;33.30;70.60;;;;;;5034842;28;20252;-64
2021/06/26 09:22:09;;;;;;;5.80;5.40;;;33.40;70.00;;;;;;5035138;28;20904;-66
2021/06/26 09:24:49;;;;;;;6.20;5.60;;;32.70;70.50;;;;;;5035078;28;20899;-66
2021/06/26 09:27:17;;;;;;;6.27;5.77;;;32.10;72.90;;;;;;5034661;28;20802;-66
2021/06/26 09:29:51;;;;;;;5.97;5.43;;;31.40;73.50;;;;;;5034944;28;20447;-65
2021/06/26 09:32:21;;;;;;;5.63;5.13;;;30.60;75.00;;;;;;5035078;28;20402;-65
2021/06/26 09:34:47;;;;;;;6.47;5.87;;;30.10;75.00;;;;;;5034179;28;20854;-67
2021/06/26 09:37:25;;;;;;;6.23;5.70;;;29.70;76.30;;;;;;5034619;28;20471;-66
2021/06/26 09:39:56;;;;;;;5.90;5.40;;;29.30;77.30;;;;;;5034885;28;20216;-65
2021/06/26 09:42:30;;;;;;;5.73;5.23;;;29.30;80.60;;;;;;5034469;28;20956;-65
2021/06/26 09:44:59;;;;;;;6.80;5.60;;;29.30;80.00;;;;;;5034972;28;20468;-65
2021/06/26 09:47:29;;;;;;;5.73;5.23;;;29.70;77.70;;;;;;5034304;28;20492;-65
2021/06/26 09:50:11;;;;;;;5.30;4.80;;;30.10;76.10;;;;;;5034620;28;20416;-66
2021/06/26 09:52:52;;;;;;;5.20;4.70;;;30.50;77.10;;;;;;5016907;28;20901;-65
2021/06/26 09:55:38;;;;;;;4.83;4.43;;;30.90;76.80;;;;;;5034666;28;20405;-66
2021/06/26 09:58:15;;;;;;;6.10;5.20;;;30.60;74.60;;;;;;5033608;28;20451;-66
2021/06/26 10:00:42;;;;;;;5.17;4.50;;;30.20;75.00;;;;;;5034626;28;20391;-65
2021/06/26 10:03:08;;;;;;;5.57;5.07;;;29.80;75.10;;;;;;5034312;28;20376;-65
2021/06/26 10:05:34;;;;;;;6.00;5.50;;;29.40;75.70;;;;;;5034183;28;20843;-66
2021/06/26 10:08:03;;;;;;;5.30;4.80;;;28.80;78.20;;;;;;5033978;28;20418;-67
2021/06/26 10:10:30;;;;;;;5.43;5.03;;;28.40;81.10;;;;;;5034153;28;20439;-67
2021/06/26 10:12:57;;;;;;;5.40;4.90;;;28.10;81.40;;;;;;5016230;28;20419;-64
2021/06/26 10:15:25;;;;;;;6.00;5.37;;;28.00;83.70;;;;;;5034331;28;20789;-65
2021/06/26 10:17:51;;;;;;;4.97;4.53;;;27.80;82.20;;;;;;5033674;28;20423;-66
2021/06/26 10:20:20;;;;;;;4.77;4.27;;;27.80;84.00;;;;;;5033682;28;20452;-66
2021/06/26 10:22:57;;;;;;;5.47;4.63;;;28.50;84.80;;;;;;5034189;28;20440;-67
2021/06/26 10:25:32;;;;;;;5.33;4.70;;;29.40;80.10;;;;;;5016835;28;20396;-67
2021/06/26 10:28:06;;;;;;;4.90;4.50;;;30.30;79.40;;;;;;5033349;28;20893;-64
2021/06/26 10:30:32;;;;;;;5.10;4.70;;;30.80;78.20;;;;;;5033889;28;20432;-66
2021/06/26 10:33:04;;;;;;;4.87;4.47;;;31.00;72.30;;;;;;5033986;28;20417;-65
2021/06/26 10:35:32;;;;;;;3.90;3.60;;;30.60;73.20;;;;;;5033836;28;20383;-64
2021/06/26 10:38:04;;;;;;;4.80;4.40;;;29.90;74.70;;;;;;5033342;28;20466;-67
2021/06/26 10:40:57;;;;;;;4.43;4.03;;;29.50;76.40;;;;;;5033787;28;20407;-66
2021/06/26 10:43:30;;;;;;;5.73;4.83;;;29.30;77.40;;;;;;5032338;28;20427;-64
2021/06/26 10:46:13;;;;;;;5.70;5.20;;;29.70;78.80;;;;;;5032702;28;20489;-66
2021/06/26 10:48:41;;;;;;;4.90;4.50;;;30.40;76.10;;;;;;5032840;28;20442;-67
2021/06/26 10:51:08;;;;;;;5.63;5.13;;;30.70;76.60;;;;;;5032936;28;20463;-68
2021/06/26 10:53:39;;;;;;;5.13;4.63;;;30.50;74.50;;;;;;5033525;28;20492;-66
2021/06/26 10:56:09;;;;;;;5.30;4.90;;;30.10;74.50;;;;;;5033642;28;20409;-64
2021/06/26 10:58:45;;;;;;;4.50;4.10;;;29.80;77.30;;;;;;5032969;28;20827;-66
2021/06/26 11:01:22;;;;;;;5.00;4.60;;;30.10;75.10;;;;;;5033506;28;20881;-67
2021/06/26 11:03:51;;;;;;;5.13;4.63;;;30.50;73.80;;;;;;5033399;28;20387;-66
2021/06/26 11:06:27;;;;;;;5.03;4.60;;;30.70;73.40;;;;;;5033036;28;20508;-65
2021/06/26 11:09:09;;;;;;;4.97;4.50;;;30.60;73.00;;;;;;5032802;28;20399;-65
2021/06/26 11:11:39;;;;;;;4.50;4.20;;;30.30;72.80;;;;;;5033607;28;20777;-66
2021/06/26 11:14:10;;;;;;;4.30;4.00;;;30.10;73.00;;;;;;5033348;28;20409;-66
2021/06/26 11:16:40;;;;;;;4.90;4.50;;;30.00;74.80;;;;;;5033062;28;20989;-66
2021/06/26 11:19:06;;;;;;;4.70;4.20;;;29.80;75.10;;;;;;5032655;28;20460;-65
2021/06/26 11:21:44;;;;;;;4.37;4.07;;;29.60;75.50;;;;;;5033053;28;20500;-66
2021/06/26 11:24:10;;;;;;;4.50;3.90;;;29.20;77.50;;;;;;5033505;28;20815;-64
2021/06/26 11:27:12;;;;;;;4.27;3.87;;;29.00;81.60;;;;;;5033104;28;20404;-66
2021/06/26 11:29:40;;;;;;;4.90;4.50;;;28.70;81.60;;;;;;4981664;28;20419;-65
2021/06/26 11:32:23;;;;;;;4.90;4.50;;;28.60;79.70;;;;;;5033005;28;20413;-66
2021/06/26 11:35:06;;;;;;;4.83;4.43;;;28.70;78.20;;;;;;5033194;28;20739;-64
2021/06/26 11:37:35;;;;;;;4.63;4.23;;;28.40;78.90;;;;;;5032626;28;20409;-66
2021/06/26 11:40:04;;;;;;;4.30;3.90;;;28.00;79.30;;;;;;5032208;28;20460;-65
2021/06/26 11:42:29;;;;;;;4.63;4.23;;;27.80;78.90;;;;;;5032687;28;20901;-66
2021/06/26 11:44:55;;;;;;;4.60;3.80;;;27.60;80.40;;;;;;5033054;28;20408;-64
2021/06/26 11:47:26;;;;;;;4.33;4.00;;;27.60;80.50;;;;;;5032260;28;20226;-66
2021/06/26 11:49:51;;;;;;;4.23;3.87;;;27.60;83.60;;;;;;5032907;28;20542;-66
2021/06/26 11:52:17;;;;;;;4.57;4.07;;;27.50;80.70;;;;;;5033000;28;20424;-65
2021/06/26 11:54:44;;;;;;;4.40;4.00;;;27.50;81.30;;;;;;5032828;28;20173;-67
2021/06/26 11:57:12;;;;;;;4.67;4.27;;;27.40;81.20;;;;;;5034041;28;20186;-64
2021/06/26 11:59:43;;;;;;;5.00;4.50;;;27.20;82.80;;;;;;5036529;28;20473;-65
2021/06/26 12:02:10;;;;;;;4.70;4.20;;;27.10;82.80;;;;;;5036470;28;20422;-67
2021/06/26 12:04:38;;;;;;;4.30;3.90;;;27.00;82.70;;;;;;5036722;28;20434;-64
2021/06/26 12:07:08;;;;;;;5.70;4.73;;;27.00;85.70;;;;;;5036571;28;20453;-66
2021/06/26 12:09:34;;;;;;;5.97;5.23;;;27.00;84.00;;;;;;5036460;28;20426;-65
2021/06/26 12:12:00;;;;;;;4.53;4.13;;;27.00;84.30;;;;;;5036147;28;20422;-66
2021/06/26 12:14:32;;;;;;;4.10;3.70;;;27.20;83.90;;;;;;5036469;28;20485;-66
2021/06/26 12:17:03;;;;;;;4.93;4.53;;;27.30;86.00;;;;;;5036378;28;20446;-66
2021/06/26 12:19:31;;;;;;;4.97;4.57;;;27.50;83.30;;;;;;5036028;28;20470;-64
2021/06/26 12:21:58;;;;;;;4.53;4.20;;;27.40;82.70;;;;;;5036187;28;20758;-66
2021/06/26 12:24:31;;;;;;;4.27;3.87;;;27.20;84.60;;;;;;5036274;28;20438;-66
2021/06/26 12:27:12;;;;;;;4.50;3.97;;;27.20;84.30;;;;;;5036054;28;20437;-65
2021/06/26 12:29:42;;;;;;;4.20;3.80;;;27.10;83.40;;;;;;5036105;28;20513;-66
2021/06/26 12:32:08;;;;;;;5.40;4.90;;;27.10;82.90;;;;;;5036068;28;20400;-66
2021/06/26 12:34:45;;;;;;;5.80;4.70;;;27.00;84.10;;;;;;5035760;28;20513;-66
2021/06/26 12:37:10;;;;;;;4.27;3.87;;;26.80;82.90;;;;;;5035511;28;20395;-66
2021/06/26 12:39:36;;;;;;;4.97;4.03;;;26.70;84.50;;;;;;5035950;28;20509;-65
2021/06/26 12:42:09;;;;;;;4.33;3.93;;;26.80;84.50;;;;;;5035934;28;20529;-66
2021/06/26 12:44:36;;;;;;;3.70;3.40;;;26.70;84.70;;;;;;5035921;28;20417;-66